Time;durP1;ratioP1;P1;durP2;ratioP2;P2;SDS_P1;SDS_P2;PMS_P1;PMS_P2;Temp;Humidity;BMP_temperature;BMP_pressure;BME280_temperature;BME280_humidity;BME280_pressure;Samples;Min_cycle;Max_cycle;Signal;HPM_P1;HPM_P2
2021/05/19 00:01:30;;;;;;;;;5.25;4.75;;;;;17.27;75.95;100054.44;4842794;29;8853;-74
2021/05/19 00:04:27;;;;;;;;;5.00;5.00;;;;;17.23;75.35;100062.78;4842271;29;8861;-74
2021/05/19 00:07:25;;;;;;;;;4.50;4.50;;;;;17.18;75.60;100068.75;4842700;29;8841;-75
2021/05/19 00:10:21;;;;;;;;;3.75;3.75;;;;;17.26;74.84;100072.41;4842478;29;8850;-73
2021/05/19 00:13:16;;;;;;;;;3.00;3.00;;;;;17.12;75.71;100063.94;4860159;29;8905;-74
2021/05/19 00:16:12;;;;;;;;;3.75;3.75;;;;;17.21;75.82;100081.13;4860984;29;8855;-74
2021/05/19 00:19:23;;;;;;;;;4.50;4.50;;;;;17.11;75.30;100070.72;4855535;29;8959;-74
2021/05/19 00:22:18;;;;;;;;;6.00;6.00;;;;;17.04;76.40;100063.09;4842129;29;8877;-74
2021/05/19 00:25:15;;;;;;;;;4.75;4.75;;;;;17.11;76.17;100063.13;4853976;29;8851;-74
2021/05/19 00:28:11;;;;;;;;;6.00;6.00;;;;;17.18;76.08;100063.16;4860803;29;8867;-73
2021/05/19 00:31:07;;;;;;;;;7.25;5.75;;;;;17.14;76.11;100072.72;4860438;29;9691;-73
2021/05/19 00:34:03;;;;;;;;;5.00;5.00;;;;;17.23;75.99;100075.94;4848071;29;8874;-72
2021/05/19 00:36:58;;;;;;;;;4.00;4.00;;;;;17.10;75.71;100069.09;4830449;29;8833;-73
2021/05/19 00:39:55;;;;;;;;;3.25;3.25;;;;;17.12;76.27;100064.72;4842172;29;8873;-73
2021/05/19 00:42:52;;;;;;;;;5.25;4.75;;;;;17.16;76.58;100062.75;4842052;29;8853;-73
2021/05/19 00:45:48;;;;;;;;;6.00;6.00;;;;;17.20;77.04;100060.78;4842037;29;8841;-73
2021/05/19 00:48:44;;;;;;;;;3.75;3.75;;;;;17.24;75.75;100064.38;4823675;29;8859;-73
2021/05/19 00:51:40;;;;;;;;;3.00;3.00;;;;;17.16;76.31;100057.16;4805548;29;8849;-73
2021/05/19 00:54:36;;;;;;;;;3.00;3.00;;;;;17.19;76.54;100050.00;4805323;29;8893;-74
2021/05/19 00:57:33;;;;;;;;;4.25;4.25;;;;;17.23;76.88;100045.22;4805512;29;8873;-74
2021/05/19 01:00:33;;;;;;;;;5.25;5.25;;;;;17.21;77.24;100048.41;4804678;29;8858;-73
2021/05/19 01:03:29;;;;;;;;;5.00;5.00;;;;;17.14;77.21;100055.94;4805201;29;8894;-74
2021/05/19 01:07:14;;;;;;;;;5.00;5.00;;;;;17.13;77.94;100049.56;4809351;29;8961;-73
2021/05/19 01:09:43;;;;;;;;;4.25;4.25;;;;;17.16;76.84;100048.78;4842490;29;8888;-73
2021/05/19 01:12:40;;;;;;;;;5.00;5.00;;;;;17.15;76.99;100054.75;4829374;29;8865;-73
2021/05/19 01:15:37;;;;;;;;;3.75;3.75;;;;;17.16;77.13;100039.59;4841444;29;8920;-74
2021/05/19 01:18:33;;;;;;;;;3.75;3.25;;;;;17.15;77.35;100043.56;4829139;29;8924;-73
2021/05/19 01:21:31;;;;;;;;;5.00;5.00;;;;;17.13;77.29;100043.19;4822204;29;8903;-74
2021/05/19 01:24:28;;;;;;;;;4.00;4.00;;;;;17.00;77.86;100044.69;4823137;29;8885;-76
2021/05/19 01:27:24;;;;;;;;;5.75;5.75;;;;;17.02;78.45;100045.09;4823172;29;8957;-74
2021/05/19 01:30:21;;;;;;;;;5.25;5.25;;;;;16.92;78.15;100036.25;4823221;29;8865;-75
2021/05/19 01:33:17;;;;;;;;;4.75;4.75;;;;;17.05;78.99;100038.75;4823139;29;8897;-75
2021/05/19 01:36:13;;;;;;;;;6.00;6.00;;;;;17.08;78.96;100038.75;4811072;29;8986;-74
2021/05/19 01:39:09;;;;;;;;;3.50;3.50;;;;;16.86;78.92;100037.81;4804870;29;8869;-75
2021/05/19 01:42:06;;;;;;;;;6.25;6.25;;;;;17.04;78.78;100037.94;4804919;29;8950;-74
2021/05/19 01:45:02;;;;;;;;;3.75;3.75;;;;;17.05;78.67;100036.75;4805410;29;8861;-75
2021/05/19 01:47:58;;;;;;;;;3.50;3.50;;;;;17.07;78.85;100048.31;4826868;29;8880;-74
2021/05/19 01:50:54;;;;;;;;;4.00;4.00;;;;;17.18;78.50;100052.00;4845833;29;9558;-73
2021/05/19 01:53:49;;;;;;;;;4.75;4.75;;;;;17.04;78.82;100042.72;4859506;29;8863;-74
2021/05/19 01:56:45;;;;;;;;;4.25;4.25;;;;;16.94;78.76;100030.28;4859541;29;8848;-74
2021/05/19 01:59:41;;;;;;;;;5.75;5.75;;;;;17.02;78.22;100020.75;4860032;29;9644;-75
2021/05/19 02:02:37;;;;;;;;;5.00;5.00;;;;;16.69;79.44;100016.16;4859416;29;8895;-75
2021/05/19 02:05:35;;;;;;;;;6.50;6.50;;;;;16.81;78.93;100015.06;4854410;29;9498;-74
2021/05/19 02:08:30;;;;;;;;;5.00;5.00;;;;;16.80;78.88;100017.06;4829135;29;9678;-74
2021/05/19 02:11:27;;;;;;;;;3.25;3.25;;;;;16.88;78.56;100015.09;4852524;29;8883;-74
2021/05/19 02:14:23;;;;;;;;;5.50;5.50;;;;;16.86;78.79;100026.66;4859034;29;8855;-75
2021/05/19 02:17:18;;;;;;;;;5.00;5.00;;;;;16.71;79.84;100012.97;4856418;29;8885;-75
2021/05/19 02:20:17;;;;;;;;;4.25;4.25;;;;;16.60;80.11;100015.69;4841022;29;8870;-75
2021/05/19 02:23:13;;;;;;;;;5.00;5.00;;;;;16.85;79.37;100016.66;4850752;29;8847;-75
2021/05/19 02:26:08;;;;;;;;;5.25;5.25;;;;;16.83;79.69;100005.09;4857850;29;8935;-74
2021/05/19 02:29:05;;;;;;;;;2.75;2.75;;;;;16.80;79.64;100013.47;4859334;29;8873;-73
2021/05/19 02:32:01;;;;;;;;;6.00;6.00;;;;;16.96;79.05;100022.34;4842266;29;9684;-74
2021/05/19 02:34:57;;;;;;;;;5.00;5.00;;;;;16.90;79.45;100024.69;4840586;29;8894;-74
2021/05/19 02:37:52;;;;;;;;;5.25;5.25;;;;;16.96;79.20;100022.34;4840743;29;8901;-74
2021/05/19 02:40:48;;;;;;;;;5.00;5.00;;;;;16.92;78.86;100019.50;4828676;29;8973;-74
2021/05/19 02:43:45;;;;;;;;;7.75;7.75;;;;;16.84;79.74;100031.81;4840575;29;8890;-73
2021/05/19 02:46:40;;;;;;;;;5.00;5.00;;;;;17.02;78.79;100025.53;4840688;29;8952;-74
2021/05/19 02:49:36;;;;;;;;;5.00;5.00;;;;;17.00;78.80;100030.72;4804869;29;8916;-73
2021/05/19 02:52:35;;;;;;;;;7.75;7.00;;;;;16.81;78.73;100032.63;4813588;29;8871;-74
2021/05/19 02:55:31;;;;;;;;;6.00;6.00;;;;;16.63;78.94;100034.44;4825538;29;8867;-76
2021/05/19 02:58:28;;;;;;;;;5.50;5.50;;;;;16.81;79.18;100031.81;4823433;29;8872;-76
2021/05/19 03:01:24;;;;;;;;;7.75;7.75;;;;;16.70;78.97;100028.13;4826326;29;8872;-74
2021/05/19 03:04:20;;;;;;;;;7.25;6.25;;;;;16.81;78.91;100032.63;4848142;29;8879;-73
2021/05/19 03:07:16;;;;;;;;;3.75;3.75;;;;;16.97;78.97;100034.31;4842281;29;8968;-73
2021/05/19 03:10:14;;;;;;;;;6.75;6.75;;;;;17.02;78.97;100025.53;4843857;29;8857;-72
2021/05/19 03:13:09;;;;;;;;;6.75;6.00;;;;;16.99;79.20;100026.34;4844964;29;8874;-73
2021/05/19 03:16:05;;;;;;;;;7.25;7.25;;;;;17.00;78.90;100016.75;4844994;29;8852;-75
2021/05/19 03:19:01;;;;;;;;;5.00;5.00;;;;;17.09;79.28;100028.38;4826250;29;8878;-74
2021/05/19 03:21:57;;;;;;;;;7.25;7.00;;;;;17.18;79.08;100023.25;4825125;29;9642;-73
2021/05/19 03:24:52;;;;;;;;;6.50;6.50;;;;;17.16;78.42;100028.41;4825129;29;9614;-74
2021/05/19 03:27:48;;;;;;;;;6.25;6.25;;;;;17.10;78.41;100022.41;4835801;29;8960;-74
2021/05/19 03:30:44;;;;;;;;;5.00;5.00;;;;;17.23;78.58;100034.03;4843529;29;8872;-73
2021/05/19 03:33:40;;;;;;;;;7.50;7.50;;;;;16.95;77.81;100038.28;4843210;29;8837;-74
2021/05/19 03:36:36;;;;;;;;;6.75;6.75;;;;;17.09;78.64;100042.34;4831006;29;8876;-74
2021/05/19 03:39:31;;;;;;;;;5.00;5.00;;;;;17.21;78.15;100037.22;4843222;29;8849;-74
2021/05/19 03:42:27;;;;;;;;;6.25;6.25;;;;;17.06;78.09;100043.13;4843019;29;9618;-75
2021/05/19 03:45:24;;;;;;;;;6.25;6.25;;;;;17.10;77.89;100052.31;4843009;29;8841;-74
2021/05/19 03:48:20;;;;;;;;;6.00;6.00;;;;;17.08;78.14;100035.16;4831839;29;8928;-75
2021/05/19 03:51:16;;;;;;;;;6.50;6.50;;;;;17.01;78.23;100046.28;4825406;29;8860;-75
2021/05/19 03:54:11;;;;;;;;;6.25;6.25;;;;;17.03;77.92;100038.34;4838355;29;8873;-75
2021/05/19 03:57:07;;;;;;;;;7.00;7.00;;;;;17.07;78.18;100036.34;4827385;29;8879;-73
2021/05/19 04:00:07;;;;;;;;;8.75;8.75;;;;;17.11;77.62;100051.16;4816989;29;8862;-74
2021/05/19 04:03:04;;;;;;;;;6.25;6.25;;;;;17.10;78.96;100043.94;4825023;29;8918;-75
2021/05/19 04:06:01;;;;;;;;;7.50;7.50;;;;;17.03;78.31;100041.94;4825605;29;8890;-74
2021/05/19 04:08:57;;;;;;;;;5.75;5.75;;;;;16.89;78.89;100039.06;4824571;29;8880;-73
2021/05/19 04:11:53;;;;;;;;;7.00;7.00;;;;;17.06;77.92;100046.72;4824468;29;8872;-74
2021/05/19 04:14:49;;;;;;;;;6.00;6.00;;;;;17.18;78.28;100040.03;4821615;29;8876;-76
2021/05/19 04:17:44;;;;;;;;;6.75;6.75;;;;;17.10;78.34;100033.59;4833256;29;8864;-73
2021/05/19 04:20:40;;;;;;;;;8.75;8.75;;;;;17.10;77.63;100043.94;4823885;29;8863;-73
2021/05/19 04:23:36;;;;;;;;;7.75;7.75;;;;;17.14;78.91;100028.00;4824674;29;8918;-72
2021/05/19 04:26:31;;;;;;;;;8.25;8.00;;;;;17.15;77.71;100029.59;4824886;29;8859;-79
2021/05/19 04:29:31;;;;;;;;;9.25;8.25;;;;;17.25;77.98;100026.06;4829405;29;8895;-89
2021/05/19 04:32:27;;;;;;;;;6.75;6.75;;;;;17.26;77.10;100033.28;4839813;29;8904;-86
2021/05/19 04:35:22;;;;;;;;;6.25;6.25;;;;;17.33;76.85;100036.09;4839429;29;8956;-87
2021/05/19 04:38:19;;;;;;;;;6.25;6.25;;;;;17.26;76.42;100041.66;4827820;29;8868;-90
2021/05/19 04:41:15;;;;;;;;;7.25;6.00;;;;;17.34;75.59;100036.91;4827186;29;8868;-89
2021/05/19 04:44:11;;;;;;;;;7.25;7.25;;;;;17.65;75.56;100033.44;4826553;29;8914;-87
2021/05/19 04:47:06;;;;;;;;;7.25;6.75;;;;;17.69;74.81;100028.63;4848440;29;8897;-84
2021/05/19 04:50:04;;;;;;;;;4.00;4.00;;;;;17.70;74.50;100043.41;4834868;29;8869;-84
2021/05/19 04:53:00;;;;;;;;;5.00;5.00;;;;;17.75;74.29;100038.28;4834104;29;8849;-90
2021/05/19 04:55:57;;;;;;;;;6.25;6.25;;;;;17.88;74.16;100035.13;4833250;29;9643;-88
2021/05/19 04:58:53;;;;;;;;;7.50;7.50;;;;;17.91;74.54;100040.69;4850052;29;8877;-85
2021/05/19 05:01:49;;;;;;;;;6.50;6.50;;;;;18.09;73.67;100042.72;4832546;29;8976;-90
2021/05/19 05:04:44;;;;;;;;;7.75;7.00;;;;;18.09;72.83;100049.13;4825245;29;8862;-89
2021/05/19 05:07:40;;;;;;;;;6.00;6.00;;;;;18.04;72.55;100047.53;4835803;29;9070;-87
2021/05/19 05:10:36;;;;;;;;;5.75;5.75;;;;;18.02;72.51;100051.94;4846862;29;8857;-87
2021/05/19 05:13:31;;;;;;;;;30.50;19.25;;;;;17.87;71.70;100053.91;4836903;29;8979;-88
2021/05/19 05:16:27;;;;;;;;;6.25;6.25;;;;;18.08;72.21;100055.13;4835921;29;8905;-88
2021/05/19 05:19:24;;;;;;;;;8.00;8.00;;;;;17.97;71.52;100053.13;4836834;29;8922;-87
2021/05/19 05:22:19;;;;;;;;;6.75;6.75;;;;;18.06;71.64;100055.53;4845868;29;8976;-86
2021/05/19 05:25:15;;;;;;;;;6.25;6.25;;;;;18.16;70.83;100053.94;4848884;29;8857;-85
2021/05/19 05:28:11;;;;;;;;;8.25;7.50;;;;;18.46;69.93;100062.75;4844706;29;9004;-86
2021/05/19 05:31:07;;;;;;;;;7.00;7.00;;;;;18.71;70.19;100050.78;4832525;29;8869;-86
2021/05/19 05:34:02;;;;;;;;;6.25;6.25;;;;;18.74;68.90;100062.00;4846309;29;9001;-90
2021/05/19 05:36:58;;;;;;;;;6.00;6.00;;;;;18.81;69.16;100055.59;4845340;29;8869;-89
2021/05/19 05:39:53;;;;;;;;;6.25;6.25;;;;;18.92;68.99;100055.56;4853611;29;8869;-86
2021/05/19 05:43:09;;;;;;;;;;;;;;;;;;;;;
2021/05/19 05:46:05;;;;;;;;;8.50;8.50;;;;;18.80;68.80;100070.78;4841907;29;8877;-82
2021/05/19 05:49:03;;;;;;;;;5.50;5.50;;;;;18.86;68.95;100074.78;4827784;29;8877;-85
2021/05/19 05:52:01;;;;;;;;;5.75;5.75;;;;;18.87;69.13;100085.59;4848243;29;8858;-79
2021/05/19 05:54:57;;;;;;;;;8.00;8.00;;;;;18.74;69.83;100083.59;4836330;29;8936;-86
2021/05/19 05:57:52;;;;;;;;;6.00;6.00;;;;;18.80;68.74;100082.00;4830557;29;8861;-87
2021/05/19 06:00:48;;;;;;;;;7.00;7.00;;;;;18.90;68.56;100075.56;4829968;29;8861;-84
2021/05/19 06:03:46;;;;;;;;;8.00;6.00;;;;;18.76;67.80;100067.19;4841476;29;8885;-82
2021/05/19 06:06:43;;;;;;;;;6.75;6.75;;;;;18.84;68.07;100063.97;4845288;29;8859;-83
2021/05/19 06:09:39;;;;;;;;;5.00;5.00;;;;;18.96;67.92;100065.56;4830539;29;8861;-85
2021/05/19 06:12:36;;;;;;;;;7.00;7.00;;;;;19.07;68.16;100060.72;4813753;29;9051;-85
2021/05/19 06:15:31;;;;;;;;;8.00;8.00;;;;;19.12;67.66;100060.31;4837147;29;8962;-87
2021/05/19 06:18:28;;;;;;;;;6.50;6.50;;;;;18.91;68.63;100057.56;4824096;29;8922;-86
2021/05/19 06:21:24;;;;;;;;;6.50;6.50;;;;;18.93;68.89;100052.34;4836452;29;8868;-88
2021/05/19 06:24:20;;;;;;;;;8.25;8.00;;;;;19.21;68.29;100067.50;4828285;29;9007;-87
2021/05/19 06:27:17;;;;;;;;;4.25;4.25;;;;;18.75;68.97;100045.97;4812734;29;8910;-82
2021/05/19 06:30:13;;;;;;;;;9.50;9.50;;;;;18.87;69.15;100048.38;4824714;29;8860;-85
2021/05/19 06:33:10;;;;;;;;;7.00;7.00;;;;;19.09;68.86;100055.53;4824567;29;8890;-88
2021/05/19 06:36:06;;;;;;;;;6.75;6.25;;;;;18.94;68.82;100059.56;4830509;29;8999;-87
2021/05/19 06:39:02;;;;;;;;;8.25;7.25;;;;;19.07;70.85;100051.53;4844204;29;9004;-85
2021/05/19 06:41:59;;;;;;;;;6.75;6.75;;;;;19.08;71.74;100048.31;4866596;29;8869;-85
2021/05/19 06:44:55;;;;;;;;;9.00;9.00;;;;;18.97;73.02;100055.97;4851093;29;8861;-87
2021/05/19 06:47:54;;;;;;;;;9.25;8.00;;;;;19.01;73.12;100058.72;4848067;29;8854;-86
2021/05/19 06:50:50;;;;;;;;;11.00;11.00;;;;;19.02;74.98;100055.56;4848040;29;8893;-86
2021/05/19 06:53:46;;;;;;;;;9.75;9.00;;;;;19.19;75.35;100044.69;4862874;29;8858;-84
2021/05/19 06:56:44;;;;;;;;;8.00;8.00;;;;;19.55;74.57;100048.97;4839673;29;8861;-84
2021/05/19 06:59:42;;;;;;;;;8.25;8.25;;;;;19.69;73.20;100048.13;4851119;29;8917;-85
2021/05/19 07:02:38;;;;;;;;;10.00;10.00;;;;;19.55;72.19;100048.97;4825959;29;8863;-87
2021/05/19 07:05:34;;;;;;;;;8.75;8.75;;;;;19.45;72.35;100045.00;4829188;29;8851;-88
2021/05/19 07:08:29;;;;;;;;;6.75;6.75;;;;;19.15;69.03;100045.50;4829197;29;8935;-80
2021/05/19 07:11:26;;;;;;;;;5.25;5.25;;;;;19.48;69.50;100035.00;4828677;29;8870;-89
2021/05/19 07:14:23;;;;;;;;;7.00;7.00;;;;;20.10;69.14;100031.47;4842081;29;8865;-85
2021/05/19 07:17:19;;;;;;;;;6.75;6.75;;;;;20.27;67.34;100027.72;4836552;29;8849;-90
2021/05/19 07:20:16;;;;;;;;;6.25;6.25;;;;;20.42;65.53;100033.22;4833965;29;8933;-89
2021/05/19 07:23:12;;;;;;;;;6.00;6.00;;;;;19.69;65.57;100032.09;4845781;29;8865;-83
2021/05/19 07:26:08;;;;;;;;;5.25;5.25;;;;;20.06;65.43;100027.06;4824122;29;8907;-85
2021/05/19 07:29:04;;;;;;;;;4.75;4.75;;;;;19.64;65.12;100028.94;4847969;29;9559;-81
2021/05/19 07:31:59;;;;;;;;;5.75;5.75;;;;;19.79;65.08;100024.84;4847311;29;8947;-88
2021/05/19 07:34:56;;;;;;;;;5.75;5.75;;;;;19.51;66.35;100016.53;4834493;29;8905;-90
2021/05/19 07:37:53;;;;;;;;;5.00;5.00;;;;;19.98;65.67;100013.09;4849091;29;8879;-89
2021/05/19 07:40:48;;;;;;;;;5.75;5.75;;;;;20.00;66.08;100007.06;4835975;29;8969;-89
2021/05/19 07:43:44;;;;;;;;;8.75;8.75;;;;;20.51;65.61;100016.72;4857468;29;8883;-90
2021/05/19 07:46:40;;;;;;;;;7.00;7.00;;;;;20.96;63.31;100019.50;4834425;29;8887;-84
2021/05/19 07:49:21;;;;;;;;;4.50;4.50;;;;;20.89;61.99;100026.00;4848906;29;8875;-81
2021/05/19 07:52:04;;;;;;;;;5.00;5.00;;;;;21.27;59.66;100026.81;4846552;29;8873;-84
2021/05/19 07:54:50;;;;;;;;;3.25;3.25;;;;;21.15;59.72;100030.13;4841989;29;8975;-86
2021/05/19 07:57:49;;;;;;;;;5.00;5.00;;;;;21.28;59.53;100024.78;4805425;29;8918;-86
2021/05/19 08:03:16;;;;;;;;;2.50;2.50;;;;;21.38;56.34;100018.22;4816052;29;8870;-82
2021/05/19 08:06:00;;;;;;;;;3.75;3.75;;;;;21.60;55.54;100030.81;4825272;29;8919;-82
2021/05/19 08:08:41;;;;;;;;;4.25;4.25;;;;;21.72;55.94;100035.09;4825502;29;8852;-81
2021/05/19 08:11:21;;;;;;;;;2.50;2.50;;;;;21.34;57.05;100020.31;4816523;29;8950;-82
2021/05/19 08:14:02;;;;;;;;;4.25;4.25;;;;;21.40;57.42;100037.53;4827854;29;8851;-83
2021/05/19 08:16:44;;;;;;;;;3.25;3.25;;;;;21.20;57.60;100035.28;4827765;29;8863;-79
2021/05/19 08:19:25;;;;;;;;;3.00;3.00;;;;;21.43;57.45;100039.47;4802522;29;9733;-82
2021/05/19 08:22:24;;;;;;;;;4.00;4.00;;;;;21.49;56.88;100040.63;4834714;29;8862;-78
2021/05/19 08:25:20;;;;;;;;;1.25;1.25;;;;;21.97;50.88;100057.25;4846283;29;8945;-85
2021/05/19 08:28:15;;;;;;;;;2.00;1.00;;;;;22.33;48.39;100065.22;4835370;29;8941;-84
2021/05/19 08:31:13;;;;;;;;;0.80;0.80;;;;;22.58;48.73;100061.97;4836923;29;8884;-84
2021/05/19 08:34:09;;;;;;;;;0.60;0.60;;;;;22.23;49.42;100063.34;4798887;29;8865;-85
2021/05/19 08:37:04;;;;;;;;;0.00;0.00;;;;;22.07;50.08;100064.72;4800713;29;8866;-78
2021/05/19 08:40:00;;;;;;;;;0.20;0.20;;;;;22.53;49.35;100063.25;4841470;29;8857;-81
2021/05/19 08:42:56;;;;;;;;;0.00;0.00;;;;;21.81;50.70;100055.06;4841927;29;8892;-79
2021/05/19 08:45:52;;;;;;;;;0.00;0.00;;;;;21.72;50.29;100063.22;4853729;29;8980;-81
2021/05/19 08:49:00;;;;;;;;;0.00;0.00;;;;;21.64;49.53;100048.44;4855627;29;8968;-78
2021/05/19 08:51:56;;;;;;;;;0.40;0.40;;;;;21.62;48.90;100064.13;4843726;29;8865;-79
2021/05/19 08:54:54;;;;;;;;;0.00;0.00;;;;;21.72;49.14;100056.81;4854470;29;8914;-81
2021/05/19 08:57:51;;;;;;;;;0.00;0.00;;;;;21.21;50.19;100067.81;4842539;29;8992;-81
2021/05/19 09:00:47;;;;;;;;;0.00;0.00;;;;;20.67;50.99;100072.38;4832066;29;9663;-81
2021/05/19 09:03:43;;;;;;;;;0.00;0.00;;;;;19.48;54.18;100065.84;4845575;29;9054;-81
2021/05/19 09:06:40;;;;;;;;;0.00;0.00;;;;;19.64;56.38;100071.81;4867716;29;8871;-79
2021/05/19 09:09:39;;;;;;;;;0.75;0.75;;;;;20.03;59.26;100055.97;4848257;29;9740;-79
2021/05/19 09:12:35;;;;;;;;;0.00;0.00;;;;;19.21;59.92;100057.09;4863563;29;9603;-81
2021/05/19 09:15:48;;;;;;;;;0.00;0.00;;;;;19.51;59.77;100056.59;4849116;29;8851;-79
2021/05/19 09:18:49;;;;;;;;;0.00;0.00;;;;;19.59;61.02;100038.56;4862323;29;8851;-81
2021/05/19 09:21:46;;;;;;;;;2.00;1.00;;;;;20.16;60.55;100041.03;4860945;29;8874;-80
2021/05/19 09:24:42;;;;;;;;;0.00;0.00;;;;;20.07;61.58;100040.69;4851158;29;8985;-84
2021/05/19 09:27:40;;;;;;;;;0.00;0.00;;;;;20.73;58.73;100054.66;4834837;29;8903;-81
2021/05/19 09:30:45;;;;;;;;;0.00;0.00;;;;;20.88;59.11;100046.09;4843106;29;8909;-78
2021/05/19 09:33:42;;;;;;;;;0.25;0.25;;;;;20.96;57.89;100050.41;4830256;29;8871;-79
2021/05/19 09:36:38;;;;;;;;;0.00;0.00;;;;;21.07;55.65;100049.06;4823736;29;9574;-85
2021/05/19 09:39:52;;;;;;;;;0.00;0.00;;;;;20.94;55.75;100064.09;4821854;29;8863;-80
2021/05/19 09:42:49;;;;;;;;;0.00;0.00;;;;;20.78;56.57;100048.59;4824237;29;8883;-83
2021/05/19 09:46:02;;;;;;;;;0.00;0.00;;;;;21.14;57.65;100053.81;4835125;29;8863;-80
2021/05/19 09:49:20;;;;;;;;;0.00;0.00;;;;;20.98;58.23;100048.78;4824238;29;8885;-86
2021/05/19 09:52:18;;;;;;;;;0.00;0.00;;;;;20.71;60.19;100037.41;4823626;29;8855;-78
2021/05/19 09:55:13;;;;;;;;;0.00;0.00;;;;;20.75;58.86;100031.75;4836623;29;9591;-80
2021/05/19 09:58:31;;;;;;;;;0.00;0.00;;;;;21.21;59.11;100016.41;4832943;29;8866;-80
2021/05/19 10:01:27;;;;;;;;;0.25;0.25;;;;;21.42;57.67;100009.75;4831182;29;9000;-85
2021/05/19 10:04:27;;;;;;;;;0.00;0.00;;;;;21.25;58.24;100023.59;4843856;29;8953;-85
2021/05/19 10:07:23;;;;;;;;;0.00;0.00;;;;;21.45;56.64;100026.59;4832210;29;8922;-86
2021/05/19 10:10:19;;;;;;;;;0.00;0.00;;;;;21.65;54.50;100021.91;4835646;29;8869;-80
2021/05/19 10:13:15;;;;;;;;;0.00;0.00;;;;;21.78;53.87;100018.53;4834094;29;8876;-80
2021/05/19 10:16:16;;;;;;;;;0.00;0.00;;;;;21.90;54.04;100026.38;4841524;29;8873;-79
2021/05/19 10:19:17;;;;;;;;;0.00;0.00;;;;;21.82;54.46;100028.50;4849474;29;8956;-80
2021/05/19 10:22:15;;;;;;;;;0.00;0.00;;;;;21.97;54.91;100008.59;4828732;29;8865;-81
2021/05/19 10:25:36;;;;;;;;;0.00;0.00;;;;;22.11;54.57;100016.84;4823455;29;9608;-86
2021/05/19 10:28:44;;;;;;;;;0.00;0.00;;;;;22.14;54.47;100016.00;4835476;29;8889;-85
2021/05/19 10:31:41;;;;;;;;;0.00;0.00;;;;;22.54;53.17;100002.84;4836028;29;8886;-84
2021/05/19 10:34:45;;;;;;;;;0.00;0.00;;;;;22.84;53.49;100006.75;4833219;29;8881;-85
2021/05/19 10:37:50;;;;;;;;;0.00;0.00;;;;;22.63;53.25;100005.13;4835702;29;8924;-87
2021/05/19 10:40:53;;;;;;;;;0.00;0.00;;;;;23.18;53.66;100015.81;4825680;29;8894;-84
2021/05/19 10:43:52;;;;;;;;;0.00;0.00;;;;;22.93;54.29;100009.84;4834737;29;8924;-90
2021/05/19 10:46:53;;;;;;;;;0.00;0.00;;;;;22.78;52.01;100006.47;4851512;29;8970;-83
2021/05/19 10:50:00;;;;;;;;;0.00;0.00;;;;;22.15;53.26;100006.31;4852011;29;8844;-84
2021/05/19 11:00:24;;;;;;;;;0.00;0.00;;;;;20.95;65.01;99998.22;4845865;29;8882;-88
2021/05/19 11:03:20;;;;;;;;;0.00;0.00;;;;;20.01;67.71;100000.22;4844661;29;8886;-82
2021/05/19 11:06:16;;;;;;;;;0.00;0.00;;;;;19.68;70.42;100016.47;4853049;29;8885;-85
2021/05/19 11:09:23;;;;;;;;;2.00;2.00;;;;;19.70;71.68;100019.66;4848815;29;8839;-84
2021/05/19 11:12:24;;;;;;;;;0.00;0.00;;;;;19.48;70.09;100017.38;4856469;29;8871;-83
2021/05/19 11:21:37;;;;;;;;;0.25;0.25;;;;;18.71;74.35;100008.75;4850878;29;9002;-86
2021/05/19 11:24:56;;;;;;;;;2.75;1.00;;;;;18.60;75.03;100008.75;4843685;29;8818;-81
2021/05/19 11:27:58;;;;;;;;;0.00;0.00;;;;;18.22;75.92;99990.78;4850687;29;8862;-81
2021/05/19 11:31:07;;;;;;;;;1.00;1.00;;;;;18.72;75.71;100005.59;4843752;29;8881;-85
2021/05/19 11:34:05;;;;;;;;;1.50;1.50;;;;;18.93;75.84;100009.53;4845715;29;8849;-84
2021/05/19 11:37:03;;;;;;;;;1.00;1.00;;;;;18.42;77.50;100002.38;4833109;29;8861;-84
2021/05/19 11:40:06;;;;;;;;;0.50;0.50;;;;;18.43;77.27;100001.19;4854571;29;8901;-85
2021/05/19 11:43:01;;;;;;;;;1.50;1.50;;;;;18.81;76.67;99986.34;4854799;29;8865;-81
2021/05/19 11:45:58;;;;;;;;;1.25;1.25;;;;;18.50;76.85;99987.97;4846471;29;8903;-88
2021/05/19 11:49:10;;;;;;;;;2.00;2.00;;;;;18.24;77.76;99983.56;4832949;29;8967;-80
2021/05/19 11:52:07;;;;;;;;;2.00;2.00;;;;;18.77;78.28;99973.53;4854222;29;8885;-85
2021/05/19 11:55:03;;;;;;;;;0.00;0.00;;;;;19.02;76.78;99967.91;4858834;29;8961;-82
2021/05/19 11:58:14;;;;;;;;;1.00;1.00;;;;;18.91;76.85;99959.50;4842835;29;8888;-83
2021/05/19 12:01:12;;;;;;;;;0.25;0.25;;;;;18.98;76.53;99976.28;4841396;29;8862;-84
2021/05/19 12:04:20;;;;;;;;;0.50;0.50;;;;;19.08;74.53;99964.25;4831196;29;8884;-84
2021/05/19 12:07:17;;;;;;;;;1.25;1.25;;;;;19.08;75.10;99966.25;4843779;29;9592;-85
2021/05/19 12:10:13;;;;;;;;;1.00;1.00;;;;;19.22;76.21;99959.78;4832366;29;8953;-88
2021/05/19 12:13:11;;;;;;;;;1.00;1.00;;;;;19.03;75.80;99958.28;4844134;29;8884;-81
2021/05/19 12:16:09;;;;;;;;;1.00;1.00;;;;;18.93;73.50;99962.69;4842658;29;9614;-83
2021/05/19 12:19:15;;;;;;;;;1.00;1.00;;;;;18.85;74.20;99967.53;4831096;29;8933;-85
2021/05/19 12:22:18;;;;;;;;;0.00;0.00;;;;;18.09;78.12;99970.78;4840764;29;9632;-84
2021/05/19 12:25:17;;;;;;;;;0.00;0.00;;;;;18.01;78.78;99969.19;4842300;29;8873;-86
2021/05/19 12:28:24;;;;;;;;;1.00;1.00;;;;;18.10;80.25;99961.22;4833634;29;8853;-87
2021/05/19 12:31:38;;;;;;;;;0.00;0.00;;;;;18.28;80.87;99952.81;4846784;29;8862;-84
2021/05/19 12:34:37;;;;;;;;;1.00;1.00;;;;;18.68;80.13;99947.97;4846449;29;8865;-82
2021/05/19 12:38:10;;;;;;;;;0.00;0.00;;;;;18.46;79.24;99947.97;4836789;29;8965;-84
2021/05/19 12:41:01;;;;;;;;;0.00;0.00;;;;;18.69;78.17;99944.75;4846409;29;8878;-84
2021/05/19 12:44:00;;;;;;;;;0.00;0.00;;;;;18.89;78.24;99936.72;4844108;29;9000;-84
2021/05/19 12:47:07;;;;;;;;;0.00;0.00;;;;;18.96;77.55;99949.91;4843076;29;8873;-86
2021/05/19 12:49:40;;;;;;;;;0.00;0.00;;;;;18.80;77.99;99953.16;4844819;29;8890;-84
2021/05/19 12:52:21;;;;;;;;;0.00;0.00;;;;;19.07;76.91;99956.25;5159632;27;969203;-85
2021/05/19 12:54:52;;;;;;;;;0.00;0.00;;;;;18.85;77.05;99949.91;5150697;27;8833;-85
2021/05/19 12:57:36;;;;;;;;;1.00;1.00;;;;;18.86;77.48;99945.91;5138085;27;8847;-88
2021/05/19 13:00:35;;;;;;;;;0.00;0.00;;;;;18.73;78.02;99953.97;5145292;27;8823;-85
2021/05/19 13:03:36;;;;;;;;;0.00;0.00;;;;;19.11;77.94;99948.63;5154716;27;8845;-88
2021/05/19 13:06:18;;;;;;;;;1.00;1.00;;;;;19.01;79.53;99947.44;5138880;27;8855;-85
2021/05/19 13:09:03;;;;;;;;;1.00;1.00;;;;;19.11;80.03;99949.44;5148798;27;8863;-88
2021/05/19 13:14:38;;;;;;;;;1.00;1.00;;;;;18.91;81.16;99942.69;5172085;27;8850;-86
2021/05/19 13:20:24;;;;;;;;;1.75;1.75;;;;;19.07;81.58;99931.81;5157648;27;8837;-84
2021/05/19 13:23:19;;;;;;;;;4.00;4.00;;;;;18.98;81.60;99931.47;5145688;27;8820;-85
2021/05/19 13:25:51;;;;;;;;;2.00;2.00;;;;;19.06;81.32;99935.84;5148475;27;9603;-89
2021/05/19 13:28:48;;;;;;;;;1.00;1.00;;;;;18.72;79.74;99931.97;5146819;27;8829;-83
2021/05/19 13:32:13;;;;;;;;;3.00;3.00;;;;;18.97;81.04;99929.88;5157956;27;8861;-80
2021/05/19 13:37:37;;;;;;;;;3.50;3.50;;;;;18.80;80.84;99923.13;5154768;27;8848;-83
2021/05/19 13:40:06;;;;;;;;;2.25;2.25;;;;;18.79;80.27;99924.34;5141050;27;8836;-85
2021/05/19 13:42:34;;;;;;;;;2.00;2.00;;;;;18.81;80.09;99930.34;5163112;27;8829;-85
2021/05/19 13:45:30;;;;;;;;;2.00;2.00;;;;;18.49;81.50;99927.59;5158517;27;8846;-83
2021/05/19 13:48:26;;;;;;;;;3.00;3.00;;;;;18.64;81.25;99927.56;5152847;27;8854;-81
2021/05/19 13:50:58;;;;;;;;;4.25;4.25;;;;;18.48;82.08;99936.38;5144014;27;9013;-87
2021/05/19 13:53:54;;;;;;;;;2.25;2.25;;;;;18.56;81.51;99924.78;5159412;27;8820;-85
2021/05/19 13:56:50;;;;;;;;;4.25;4.25;;;;;18.36;82.33;99928.41;5137344;27;8807;-79
2021/05/19 13:59:46;;;;;;;;;2.00;2.00;;;;;18.45;82.63;99925.97;5151213;27;9576;-81
2021/05/19 14:02:37;;;;;;;;;3.75;3.75;;;;;18.41;82.78;99926.00;5130459;27;8851;-81
2021/05/19 14:05:33;;;;;;;;;3.00;3.00;;;;;18.44;82.79;99932.78;5136993;27;8949;-86
2021/05/19 14:08:29;;;;;;;;;4.25;4.25;;;;;18.60;81.99;99922.75;5140964;27;8843;-84
2021/05/19 14:11:28;;;;;;;;;4.00;4.00;;;;;18.11;84.67;99922.84;5129280;27;8847;-86
2021/05/19 14:14:09;;;;;;;;;4.00;4.00;;;;;18.26;83.70;99916.03;5123092;27;8843;-85
2021/05/19 14:28:15;;;;;;;;;5.25;5.25;;;;;18.80;81.09;99919.53;5141043;27;8870;-80
2021/05/19 14:31:11;;;;;;;;;5.25;5.25;;;;;18.97;81.19;99924.28;5128753;27;8932;-81